Etusivu
METAR-TAF:

METAR-TAF

Lentoasemat :

Pärnu, Viro

Pärnun lentoasema

Leveyspiiri: 58-25-09N, Pituuspiiri: 024-28-22E, korkeus merenpinnasta: 14 m

Tämänhetkinen sää

Tämä raportti tehtiin 3 tuntia ja 12 minuuttia sitten, kello 12.50 UTC
Tuuli 8 kn idästä/koillisesta, vaihdellen pohjoisen/koillisen ja idän/kaakon välillä
Lämpötila 16°C
Kosteus 77%
Ilmanpaine 1022 hPa
Näkyvyys 10 km tai enemmän
Muutamia pilviä 2000 ft:n korkeudessa

METAR: EEPU 211250Z 06008KT 020V110 9999 FEW020 16/12 Q1022

Aika: 19:02 (16:02 UTC)


TAF: puuttuu

Säähavainnot ja -ennusteet yli 4000 lentoasemalta (METAR- ja TAF-raportit).

Käytössä olevat sääasemat on merkitty karttaan keltaisilla ja punaisilla pisteillä.

Aseta hiiri pisteen päälle nähdäksesi sääaseman nimen.

Klikkaa sitten nähdäksesi säähavainnot ja -ennusteet.

Kartan vaihtaminen: klikkaa mustalla rastilla varustettuja vihreitä pisteitä, niin voit zoomata sisään; viivalla varustettua vihreää pistettä, niin voit zoomata ulos tai vihreitä nuolia, niin pääset viereisille kartoille.


METAR-TAF: